createdAt,value
2023-03-26T00:02:14.706Z,96967.80
2023-03-26T00:05:57.221Z,96969.67
2023-03-26T00:09:47.657Z,96965.45
2023-03-26T00:29:06.642Z,96942.86
2023-03-26T00:32:56.236Z,96939.31
2023-03-26T00:36:45.313Z,96941.25
2023-03-26T00:40:34.860Z,96936.05
2023-03-26T00:44:26.780Z,96935.58
2023-03-26T00:48:15.828Z,96928.52
2023-03-26T00:52:04.995Z,96928.29
2023-03-26T00:55:54.357Z,96930.80
2023-03-26T00:59:43.548Z,96925.79
2023-03-26T01:03:32.804Z,96920.86
2023-03-26T01:07:24.647Z,96916.41
2023-03-26T01:11:13.744Z,96907.89
2023-03-26T01:15:03.679Z,96902.44
2023-03-26T01:18:54.524Z,96898.73
2023-03-26T01:22:44.415Z,96899.69
2023-03-26T01:30:35.203Z,96903.39
2023-03-26T01:34:27.083Z,96901.83
2023-03-26T01:38:23.273Z,96894.31
2023-03-26T01:42:22.772Z,96893.98
2023-03-26T01:50:39.419Z,96892.16
2023-03-26T01:54:27.113Z,96891.54
2023-03-26T01:58:17.307Z,96886.75
2023-03-26T02:01:50.533Z,96882.77
2023-03-26T02:05:36.809Z,96881.61
2023-03-26T02:17:32.166Z,96878.64
2023-03-26T02:21:21.210Z,96879.38
2023-03-26T02:25:10.322Z,96878.63
2023-03-26T02:32:55.357Z,96884.91
2023-03-26T02:36:45.619Z,96880.42
2023-03-26T02:40:34.648Z,96867.89
2023-03-26T02:44:23.833Z,96867.48
2023-03-26T03:00:13.340Z,96859.21
2023-03-26T03:04:08.327Z,96866.06
2023-03-26T03:07:57.795Z,96851.68
2023-03-26T03:11:49.428Z,96853.63
2023-03-26T03:15:31.507Z,96848.02
2023-03-26T03:19:01.100Z,96853.87
2023-03-26T03:22:50.310Z,96866.86
2023-03-26T03:27:06.726Z,96868.80
2023-03-26T03:30:55.758Z,96863.88
2023-03-26T03:34:44.888Z,96857.11
2023-03-26T03:38:34.022Z,96859.89
2023-03-26T03:42:23.150Z,96862.04
2023-03-26T03:46:12.410Z,96866.77
2023-03-26T03:50:07.525Z,96863.58
2023-03-26T03:53:56.519Z,96866.86
2023-03-26T04:10:02.049Z,96859.11
2023-03-26T04:13:49.787Z,96864.04
2023-03-26T04:17:37.453Z,96862.56
2023-03-26T04:21:25.054Z,96863.83
2023-03-26T04:25:12.520Z,96864.10
2023-03-26T04:29:06.168Z,96868.16
2023-03-26T04:33:03.482Z,96861.57
2023-03-26T04:48:40.463Z,96869.35
2023-03-26T04:52:20.774Z,96862.05
2023-03-26T04:56:09.735Z,96873.11
2023-03-26T04:59:56.123Z,96870.34
2023-03-26T05:03:32.703Z,96868.60
2023-03-26T05:06:59.461Z,96870.66
2023-03-26T05:10:05.178Z,96873.35
2023-03-26T05:13:21.578Z,96874.67
2023-03-26T05:17:01.959Z,96878.86
2023-03-26T05:20:51.672Z,96872.48
2023-03-26T05:24:33.827Z,96874.52
2023-03-26T05:28:07.350Z,96876.71
2023-03-26T05:32:01.629Z,96875.88
2023-03-26T05:35:50.880Z,96873.90
2023-03-26T05:39:22.923Z,96870.25
2023-03-26T05:42:50.488Z,96871.27
2023-03-26T05:46:38.115Z,96875.80
2023-03-26T05:49:49.489Z,96870.85
2023-03-26T05:53:31.229Z,96874.23
2023-03-26T05:57:01.452Z,96881.90
2023-03-26T06:00:49.317Z,96879.70
2023-03-26T06:04:14.081Z,96889.42
2023-03-26T06:08:02.789Z,96885.30
2023-03-26T06:11:05.796Z,96890.44
2023-03-26T06:13:57.037Z,96889.34
2023-03-26T06:17:08.959Z,96887.29
2023-03-26T06:20:30.555Z,96887.98
2023-03-26T06:23:52.820Z,96886.92
2023-03-26T06:31:34.341Z,96896.19
2023-03-26T06:35:15.084Z,96896.34
2023-03-26T06:38:37.694Z,96894.44
2023-03-26T06:41:35.096Z,96892.55
2023-03-26T06:44:23.858Z,96892.91
2023-03-26T06:47:33.820Z,96897.80
2023-03-26T06:50:34.037Z,96892.00
2023-03-26T06:54:29.052Z,96887.33
2023-03-26T06:58:10.657Z,96879.86
2023-03-26T07:01:38.111Z,96880.65
2023-03-26T07:05:15.944Z,96882.06
2023-03-26T07:08:51.685Z,96879.25
2023-03-26T07:12:46.906Z,96878.13
2023-03-26T07:16:34.785Z,96875.30
2023-03-26T07:20:00.811Z,96879.10
2023-03-26T07:23:30.065Z,96872.93
2023-03-26T07:27:44.228Z,96872.01
2023-03-26T07:31:30.015Z,96875.12
2023-03-26T07:35:31.574Z,96877.06
2023-03-26T08:02:54.573Z,96881.10
2023-03-26T08:07:17.105Z,96883.98
2023-03-26T08:11:04.686Z,96881.58
2023-03-26T08:14:57.719Z,96878.83
2023-03-26T08:30:07.736Z,96862.66
2023-03-26T08:33:59.542Z,96859.04
2023-03-26T09:00:16.273Z,96849.33
2023-03-26T09:04:19.065Z,96848.10
2023-03-26T09:08:11.393Z,96843.84
2023-03-26T09:11:43.083Z,96843.08
2023-03-26T09:14:23.151Z,96847.74
2023-03-26T09:18:14.581Z,96849.14
2023-03-26T09:30:37.990Z,96823.37
2023-03-26T09:34:34.629Z,96816.83
2023-03-26T09:38:40.100Z,96824.81
2023-03-26T09:42:37.231Z,96820.98
2023-03-26T09:45:50.908Z,96813.23
2023-03-26T10:04:43.442Z,96805.90
2023-03-26T10:08:36.859Z,96803.61
2023-03-26T10:12:46.980Z,96797.90
2023-03-26T10:16:49.596Z,96789.08
2023-03-26T10:36:40.647Z,96781.52
2023-03-26T10:40:50.187Z,96765.39
2023-03-26T10:44:10.530Z,96764.77
2023-03-26T10:47:55.247Z,96766.80
2023-03-26T10:51:44.270Z,96768.13
2023-03-26T11:17:55.257Z,96731.77
2023-03-26T11:22:05.392Z,96744.70
2023-03-26T11:25:52.811Z,96744.13
2023-03-26T11:29:03.119Z,96747.61
2023-03-26T11:33:04.016Z,96752.36
2023-03-26T11:48:11.528Z,96728.10
2023-03-26T11:52:11.690Z,96724.04
2023-03-26T11:55:24.045Z,96722.86
2023-03-26T11:59:22.383Z,96721.78
2023-03-26T12:06:08.096Z,96716.73
2023-03-26T12:21:33.216Z,96676.94
2023-03-26T12:25:28.389Z,96676.30
2023-03-26T12:28:37.089Z,96668.44
2023-03-26T12:31:45.766Z,96660.73
2023-03-26T12:35:12.113Z,96658.00
2023-03-26T12:38:12.991Z,96647.21
2023-03-26T12:53:24.510Z,96628.58
2023-03-26T12:57:12.022Z,96630.33
2023-03-26T13:00:23.644Z,96627.92
2023-03-26T13:03:42.024Z,96622.30
2023-03-26T13:07:02.158Z,96622.06
2023-03-26T13:11:06.861Z,96614.45
2023-03-26T13:15:02.918Z,96613.77
2023-03-26T13:48:48.189Z,96578.08
2023-03-26T13:52:24.699Z,96582.94
2023-03-26T13:56:16.750Z,96581.59
2023-03-26T14:12:00.500Z,96573.05
2023-03-26T14:15:40.754Z,96575.88
2023-03-26T14:19:37.440Z,96574.25
2023-03-26T14:23:03.361Z,96570.36
2023-03-26T14:31:42.987Z,96566.77
2023-03-26T14:35:31.636Z,96560.38
2023-03-26T14:39:10.386Z,96561.53
2023-03-26T14:43:09.413Z,96558.23
2023-03-26T14:46:46.488Z,96554.48
2023-03-26T14:49:41.583Z,96548.63
2023-03-26T14:53:38.224Z,96546.53
2023-03-26T15:16:04.487Z,96531.61
2023-03-26T15:19:51.680Z,96529.05
2023-03-26T15:23:48.045Z,96530.17
2023-03-26T15:27:27.068Z,96517.88
2023-03-26T15:30:56.761Z,96522.23
2023-03-26T15:42:14.388Z,96514.86
2023-03-26T15:46:23.179Z,96510.86
2023-03-26T15:49:55.149Z,96506.89
2023-03-26T15:53:54.475Z,96501.39
2023-03-26T16:09:52.858Z,96487.98
2023-03-26T16:13:52.722Z,96491.21
2023-03-26T16:17:21.904Z,96485.14
2023-03-26T16:20:47.310Z,96491.33
2023-03-26T16:24:32.495Z,96487.11
2023-03-26T17:17:33.152Z,96488.89
2023-03-26T17:21:24.864Z,96490.38
2023-03-26T17:25:02.869Z,96490.38
2023-03-26T17:40:34.462Z,96498.93
2023-03-26T17:44:19.451Z,96503.14
2023-03-26T17:48:00.643Z,96503.53
2023-03-26T17:51:35.205Z,96502.49
2023-03-26T17:59:20.924Z,96512.20
2023-03-26T18:02:53.590Z,96508.21
2023-03-26T18:06:46.222Z,96506.80
2023-03-26T18:47:36.589Z,96498.83
2023-03-26T18:50:14.659Z,96498.17
2023-03-26T18:53:23.596Z,96500.13
2023-03-26T18:56:40.340Z,96501.33
2023-03-26T19:00:09.490Z,96503.56
2023-03-26T19:03:45.672Z,96501.79
2023-03-26T19:06:21.511Z,96499.56
2023-03-26T19:09:31.628Z,96503.17
2023-03-26T19:12:53.892Z,96504.27
2023-03-26T19:16:43.830Z,96500.75
2023-03-26T19:20:15.847Z,96495.75
2023-03-26T19:23:53.088Z,96495.67
2023-03-26T19:49:01.913Z,96449.38
2023-03-26T19:52:46.590Z,96444.95
2023-03-26T19:56:37.099Z,96442.83
2023-03-26T20:00:09.109Z,96442.37
2023-03-26T20:16:05.619Z,96416.11
2023-03-26T20:19:04.925Z,96413.98
2023-03-26T20:21:58.665Z,96406.52
2023-03-26T20:25:30.173Z,96401.59
2023-03-26T20:29:20.344Z,96392.37
2023-03-26T20:33:18.988Z,96379.65
2023-03-26T20:37:09.302Z,96368.54
2023-03-26T20:40:58.428Z,96366.73
2023-03-26T20:44:47.317Z,96362.15
2023-03-26T20:48:35.126Z,96356.01
2023-03-26T20:52:07.633Z,96343.64
2023-03-26T20:55:58.635Z,96339.92
2023-03-26T21:19:14.998Z,96329.37
2023-03-26T21:23:10.088Z,96333.33
2023-03-26T21:27:07.952Z,96332.91
2023-03-26T21:46:36.759Z,96308.51
2023-03-26T21:50:26.046Z,96301.57
2023-03-26T21:54:15.225Z,96299.55
2023-03-26T21:58:19.324Z,96295.18
2023-03-26T22:02:14.652Z,96298.45
2023-03-26T22:06:15.944Z,96309.64
2023-03-26T22:25:27.814Z,96280.04
2023-03-26T22:29:17.048Z,96275.50
2023-03-26T22:32:57.222Z,96268.64
2023-03-26T22:36:26.058Z,96266.15
2023-03-26T22:40:15.057Z,96256.50
2023-03-26T22:44:16.948Z,96252.34
2023-03-26T22:48:09.438Z,96249.97
2023-03-26T22:51:58.450Z,96246.69
2023-03-26T22:55:49.519Z,96244.73
2023-03-26T22:59:39.874Z,96250.38
2023-03-26T23:03:35.032Z,96251.65
2023-03-26T23:07:25.663Z,96250.05
2023-03-26T23:11:14.780Z,96246.44
2023-03-26T23:15:03.809Z,96239.17
2023-03-26T23:18:52.879Z,96235.36
2023-03-26T23:22:34.468Z,96227.77
2023-03-26T23:26:23.808Z,96228.64
2023-03-26T23:30:12.813Z,96222.70
2023-03-26T23:34:02.111Z,96229.98
2023-03-26T23:37:51.209Z,96228.58
2023-03-26T23:41:36.101Z,96228.19
2023-03-26T23:45:25.528Z,96229.80
2023-03-26T23:49:16.441Z,96230.27
2023-03-26T23:53:02.694Z,96232.93
2023-03-26T23:56:53.364Z,96234.98
